createdAt,value
2023-05-22T00:02:00.249Z,15.70
2023-05-22T00:04:30.155Z,15.20
2023-05-22T00:06:56.883Z,20.08
2023-05-22T00:09:25.512Z,21.45
2023-05-22T00:11:52.749Z,15.48
2023-05-22T00:14:19.452Z,17.52
2023-05-22T00:16:48.473Z,19.40
2023-05-22T00:19:17.425Z,19.30
2023-05-22T00:21:44.694Z,20.08
2023-05-22T00:24:11.423Z,20.83
2023-05-22T00:26:38.113Z,20.98
2023-05-22T00:29:05.973Z,19.50
2023-05-22T00:31:32.700Z,23.25
2023-05-22T00:33:59.760Z,18.98
2023-05-22T00:36:26.482Z,17.52
2023-05-22T00:38:53.144Z,19.42
2023-05-22T00:41:19.806Z,18.20
2023-05-22T00:43:47.634Z,19.92
2023-05-22T00:46:14.559Z,17.85
2023-05-22T00:48:41.295Z,20.75
2023-05-22T00:51:08.661Z,18.67
2023-05-22T00:53:35.470Z,20.33
2023-05-22T00:56:02.136Z,17.30
2023-05-22T00:58:28.823Z,18.45
2023-05-22T01:00:56.074Z,19.55
2023-05-22T01:03:26.858Z,15.73
2023-05-22T01:05:54.783Z,18.85
2023-05-22T01:08:21.745Z,18.88
2023-05-22T01:10:53.411Z,21.20
2023-05-22T01:13:30.665Z,20.52
2023-05-22T01:16:07.171Z,18.35
2023-05-22T01:18:52.638Z,18.38
2023-05-22T01:21:30.391Z,19.45
2023-05-22T01:24:16.289Z,17.13
2023-05-22T01:27:14.784Z,18.02
2023-05-22T01:29:42.741Z,20.45
2023-05-22T01:32:10.795Z,17.13
2023-05-22T01:34:38.658Z,20.83
2023-05-22T01:37:06.176Z,19.42
2023-05-22T01:39:33.126Z,18.92
2023-05-22T01:41:59.873Z,19.88
2023-05-22T01:44:26.574Z,21.88
2023-05-22T01:46:53.207Z,18.27
2023-05-22T01:49:19.918Z,19.83
2023-05-22T01:52:03.793Z,23.75
2023-05-22T01:54:43.913Z,22.60
2023-05-22T01:57:20.116Z,23.27
2023-05-22T01:59:54.666Z,26.80
2023-05-22T02:02:22.154Z,29.05
2023-05-22T02:05:10.418Z,21.03
2023-05-22T02:10:05.987Z,23.37
2023-05-22T02:12:33.333Z,24.48
2023-05-22T02:14:59.984Z,22.42
2023-05-22T02:17:27.152Z,38.45
2023-05-22T02:19:53.771Z,21.17
2023-05-22T02:22:20.407Z,17.05
2023-05-22T02:24:48.089Z,17.63
2023-05-22T02:27:14.703Z,22.38
2023-05-22T02:29:41.330Z,19.73
2023-05-22T02:32:08.259Z,21.02
2023-05-22T02:34:35.074Z,20.48
2023-05-22T02:37:06.111Z,25.02
2023-05-22T02:39:32.733Z,23.60
2023-05-22T02:41:59.321Z,21.33
2023-05-22T02:44:26.024Z,23.35
2023-05-22T02:46:52.891Z,23.02
2023-05-22T02:49:19.587Z,21.40
2023-05-22T02:51:47.872Z,22.15
2023-05-22T02:54:15.959Z,22.08
2023-05-22T02:56:43.414Z,20.45
2023-05-22T02:59:10.229Z,19.67
2023-05-22T03:01:38.978Z,20.02
2023-05-22T03:04:06.799Z,20.05
2023-05-22T03:06:35.342Z,18.63
2023-05-22T03:09:03.969Z,20.20
2023-05-22T03:13:57.849Z,20.40
2023-05-22T03:16:25.054Z,22.35
2023-05-22T03:18:53.476Z,23.35
2023-05-22T03:21:20.098Z,23.02
2023-05-22T03:23:47.324Z,25.33
2023-05-22T03:26:13.947Z,27.17
2023-05-22T03:28:40.741Z,20.52
2023-05-22T03:31:09.476Z,22.70
2023-05-22T03:33:36.164Z,24.45
2023-05-22T03:36:03.632Z,22.25
2023-05-22T03:38:30.297Z,25.08
2023-05-22T03:40:56.907Z,22.50
2023-05-22T03:43:23.494Z,22.73
2023-05-22T03:45:50.160Z,24.67
2023-05-22T03:48:16.796Z,23.60
2023-05-22T03:50:43.469Z,23.75
2023-05-22T03:53:10.134Z,21.70
2023-05-22T03:55:36.760Z,19.95
2023-05-22T03:58:03.365Z,19.98
2023-05-22T04:00:29.974Z,23.60
2023-05-22T04:02:58.787Z,22.10
2023-05-22T04:05:25.704Z,19.40
2023-05-22T04:07:52.357Z,18.02
2023-05-22T04:10:22.568Z,19.55
2023-05-22T04:12:49.904Z,21.08
2023-05-22T04:15:16.595Z,18.73
2023-05-22T04:17:43.233Z,20.58
2023-05-22T04:20:11.313Z,17.67
2023-05-22T04:22:38.583Z,19.15
2023-05-22T04:25:05.594Z,17.38
2023-05-22T04:27:33.290Z,20.33
2023-05-22T04:30:00.731Z,18.33
2023-05-22T04:32:27.651Z,17.20
2023-05-22T04:34:54.352Z,18.13
2023-05-22T04:37:21.020Z,18.80
2023-05-22T04:39:47.942Z,16.33
2023-05-22T04:42:15.935Z,16.05
2023-05-22T04:44:42.692Z,15.95
2023-05-22T04:47:14.442Z,16.30
2023-05-22T04:49:42.549Z,17.65
2023-05-22T04:52:11.584Z,17.92
2023-05-22T04:54:43.351Z,21.90
2023-05-22T04:57:10.101Z,20.02
2023-05-22T04:59:38.072Z,18.60
2023-05-22T05:02:08.053Z,15.68
2023-05-22T05:04:35.074Z,18.95
2023-05-22T05:07:02.462Z,21.02
2023-05-22T05:09:29.410Z,20.90
2023-05-22T05:11:56.291Z,17.92
2023-05-22T05:14:23.034Z,18.27
2023-05-22T05:16:51.847Z,18.35
2023-05-22T05:19:21.485Z,19.35
2023-05-22T05:21:49.386Z,22.65
2023-05-22T05:24:18.003Z,20.02
2023-05-22T05:29:12.746Z,18.95
2023-05-22T05:31:39.925Z,19.73
2023-05-22T05:34:06.584Z,19.17
2023-05-22T05:36:33.193Z,21.45
2023-05-22T05:38:59.901Z,19.25
2023-05-22T05:41:26.810Z,17.30
2023-05-22T05:43:53.419Z,17.63
2023-05-22T05:46:20.139Z,16.88
2023-05-22T05:48:46.881Z,23.80
2023-05-22T05:51:13.564Z,18.52
2023-05-22T05:53:42.848Z,18.88
2023-05-22T05:56:09.794Z,18.60
2023-05-22T05:58:36.858Z,20.55
2023-05-22T06:01:03.823Z,18.35
2023-05-22T06:03:30.921Z,16.67
2023-05-22T06:05:58.192Z,16.80
2023-05-22T06:08:24.974Z,18.92
2023-05-22T06:10:51.699Z,14.80
2023-05-22T06:13:18.275Z,16.38
2023-05-22T06:15:44.930Z,14.25
2023-05-22T06:18:11.940Z,14.45
2023-05-22T06:20:39.922Z,16.05
2023-05-22T06:23:07.377Z,14.50
2023-05-22T06:25:34.835Z,17.27
2023-05-22T06:28:02.240Z,17.17
2023-05-22T06:30:39.504Z,14.98
2023-05-22T06:33:08.063Z,13.90
2023-05-22T06:35:34.884Z,17.88
2023-05-22T06:38:02.036Z,16.35
2023-05-22T06:40:28.840Z,16.48
2023-05-22T06:42:55.705Z,16.65
2023-05-22T06:45:22.330Z,15.82
2023-05-22T06:47:53.025Z,15.43
2023-05-22T06:50:20.703Z,18.95
2023-05-22T06:52:47.311Z,17.00
2023-05-22T06:55:13.958Z,18.88
2023-05-22T06:57:40.641Z,18.15
2023-05-22T07:00:10.641Z,20.42
2023-05-22T07:02:37.360Z,16.38
2023-05-22T07:05:04.642Z,16.13
2023-05-22T07:07:31.653Z,14.43
2023-05-22T07:09:58.250Z,14.18
2023-05-22T07:12:26.313Z,15.55
2023-05-22T07:14:53.148Z,15.18
2023-05-22T07:17:21.805Z,16.52
2023-05-22T07:19:48.711Z,15.57
2023-05-22T07:22:15.714Z,15.30
2023-05-22T07:24:42.379Z,17.48
2023-05-22T07:27:09.388Z,15.20
2023-05-22T07:29:36.316Z,15.75
2023-05-22T07:32:03.446Z,17.25
2023-05-22T07:34:34.163Z,16.80
2023-05-22T07:37:06.301Z,20.15
2023-05-22T07:39:32.885Z,16.63
2023-05-22T07:41:59.577Z,19.95
2023-05-22T07:44:28.048Z,18.05
2023-05-22T07:46:55.620Z,14.07
2023-05-22T07:49:23.655Z,15.40
2023-05-22T07:51:50.264Z,14.85
2023-05-22T07:54:18.269Z,15.55
2023-05-22T07:56:45.870Z,18.60
2023-05-22T07:59:12.640Z,16.77
2023-05-22T08:01:41.751Z,17.83
2023-05-22T08:04:08.969Z,17.10
2023-05-22T08:06:35.955Z,17.17
2023-05-22T08:09:02.990Z,15.80
2023-05-22T08:11:29.579Z,15.85
2023-05-22T08:13:56.483Z,16.05
2023-05-22T08:16:23.434Z,15.52
2023-05-22T08:18:50.476Z,16.33
2023-05-22T08:21:17.385Z,16.50
2023-05-22T08:23:44.054Z,14.32
2023-05-22T08:26:10.793Z,14.43
2023-05-22T08:28:39.791Z,16.40
2023-05-22T08:31:06.795Z,17.45
2023-05-22T08:33:33.441Z,16.23
2023-05-22T08:36:00.030Z,16.63
2023-05-22T08:38:26.719Z,19.73
2023-05-22T08:40:55.623Z,15.63
2023-05-22T08:43:22.369Z,16.20
2023-05-22T08:46:09.345Z,17.83
2023-05-22T08:48:36.097Z,17.98
2023-05-22T08:51:04.528Z,16.70
2023-05-22T08:56:06.746Z,18.65
2023-05-22T08:58:37.804Z,20.33
2023-05-22T09:01:06.556Z,19.10
2023-05-22T09:03:34.403Z,17.98
2023-05-22T09:06:01.874Z,19.65
2023-05-22T09:08:29.171Z,17.55
2023-05-22T09:10:56.438Z,20.95
2023-05-22T09:13:31.005Z,17.38
2023-05-22T09:16:11.478Z,18.80
2023-05-22T09:18:38.893Z,21.42
2023-05-22T09:21:11.498Z,23.10
2023-05-22T09:23:49.984Z,15.63
2023-05-22T09:26:16.651Z,17.13
2023-05-22T09:28:43.273Z,17.17
2023-05-22T09:31:09.984Z,17.35
2023-05-22T09:33:37.549Z,17.58
2023-05-22T09:36:04.473Z,16.83
2023-05-22T09:38:31.396Z,11.55
2023-05-22T09:40:58.044Z,12.77
2023-05-22T09:43:27.943Z,15.88
2023-05-22T09:46:01.059Z,14.45
2023-05-22T09:48:27.798Z,13.52
2023-05-22T09:50:55.960Z,12.05
2023-05-22T09:55:53.284Z,11.15
2023-05-22T09:58:20.308Z,11.60
2023-05-22T10:00:48.707Z,12.70
2023-05-22T10:03:17.398Z,13.25
2023-05-22T10:05:47.678Z,12.00
2023-05-22T10:08:15.441Z,12.85
2023-05-22T10:10:43.591Z,11.07
2023-05-22T10:15:36.686Z,10.48
2023-05-22T10:18:03.467Z,12.93
2023-05-22T10:20:30.734Z,10.95
2023-05-22T10:22:57.420Z,9.43
2023-05-22T10:25:24.073Z,10.38
2023-05-22T10:27:54.918Z,11.43
2023-05-22T10:30:27.584Z,10.02
2023-05-22T10:33:03.068Z,10.60
2023-05-22T10:35:39.328Z,12.88
2023-05-22T10:38:37.819Z,11.27
2023-05-22T10:41:04.703Z,10.38
2023-05-22T10:43:34.125Z,11.27
2023-05-22T10:46:04.861Z,11.35
2023-05-22T10:48:45.359Z,15.32
2023-05-22T10:51:20.916Z,10.48
2023-05-22T10:53:57.703Z,19.48
2023-05-22T10:56:25.648Z,12.70
2023-05-22T10:59:05.088Z,11.63
2023-05-22T11:01:36.274Z,12.43
2023-05-22T11:04:08.814Z,17.65
2023-05-22T11:07:05.388Z,16.27
2023-05-22T11:09:32.745Z,13.13
2023-05-22T11:12:35.086Z,12.15
2023-05-22T11:15:09.666Z,11.52
2023-05-22T11:17:39.333Z,14.77
2023-05-22T11:20:12.898Z,11.75
2023-05-22T11:22:43.970Z,11.65
2023-05-22T11:25:16.681Z,11.93
2023-05-22T11:27:43.844Z,12.07
2023-05-22T11:30:11.726Z,10.90
2023-05-22T11:32:40.545Z,11.00
2023-05-22T11:35:08.629Z,11.15
2023-05-22T11:37:39.857Z,12.15
2023-05-22T11:40:07.652Z,11.52
2023-05-22T11:42:36.210Z,15.20
2023-05-22T11:45:03.897Z,14.45
2023-05-22T11:47:30.938Z,12.18
2023-05-22T11:49:58.139Z,15.13
2023-05-22T11:52:24.788Z,20.15
2023-05-22T11:54:54.722Z,13.57
2023-05-22T11:57:22.929Z,14.63
2023-05-22T11:59:49.591Z,11.10
2023-05-22T12:02:16.884Z,14.85
2023-05-22T12:04:43.481Z,17.67
2023-05-22T12:07:10.225Z,14.48
2023-05-22T12:09:39.597Z,17.45
2023-05-22T12:12:06.630Z,18.17
2023-05-22T12:14:33.248Z,20.65
2023-05-22T12:17:00.785Z,17.80
2023-05-22T12:19:27.870Z,16.05
2023-05-22T12:21:54.702Z,21.25
2023-05-22T12:24:23.418Z,15.68
2023-05-22T12:26:53.895Z,16.00
2023-05-22T12:29:23.717Z,15.75
2023-05-22T12:31:51.162Z,13.85
2023-05-22T12:34:19.217Z,24.47
2023-05-22T12:36:47.256Z,15.77
2023-05-22T12:39:18.054Z,15.02
2023-05-22T12:41:45.736Z,15.15
2023-05-22T12:44:12.897Z,15.20
2023-05-22T12:46:41.234Z,17.00
2023-05-22T12:51:34.713Z,16.25
2023-05-22T12:54:04.270Z,14.02
2023-05-22T12:56:31.528Z,18.38
2023-05-22T12:58:58.708Z,16.95
2023-05-22T13:01:25.793Z,14.45
2023-05-22T13:03:52.940Z,11.65
2023-05-22T13:06:20.457Z,12.90
2023-05-22T13:08:47.522Z,19.40
2023-05-22T13:11:14.323Z,12.77
2023-05-22T13:13:41.128Z,16.90
2023-05-22T13:16:09.701Z,11.13
2023-05-22T13:18:36.515Z,15.05
2023-05-22T13:21:03.285Z,15.65
2023-05-22T13:23:29.976Z,14.35
2023-05-22T13:25:56.652Z,12.88
2023-05-22T13:28:23.359Z,24.42
2023-05-22T13:30:50.021Z,15.90
2023-05-22T13:33:16.810Z,18.75
2023-05-22T13:35:43.593Z,16.00
2023-05-22T13:38:10.599Z,24.27
2023-05-22T13:40:37.221Z,17.77
2023-05-22T13:43:03.902Z,16.50
2023-05-22T13:45:32.446Z,20.85
2023-05-22T13:47:59.290Z,19.92
2023-05-22T13:50:25.965Z,19.40
2023-05-22T13:52:52.574Z,20.27
2023-05-22T13:55:19.242Z,19.75
2023-05-22T13:57:46.683Z,16.92
2023-05-22T14:00:14.025Z,19.20
2023-05-22T14:02:40.957Z,19.38
2023-05-22T14:05:08.862Z,16.10
2023-05-22T14:07:35.768Z,18.92
2023-05-22T14:10:04.392Z,19.80
2023-05-22T14:12:31.082Z,19.98
2023-05-22T14:14:57.804Z,18.15
2023-05-22T14:17:24.564Z,19.63
2023-05-22T14:19:51.730Z,19.02
2023-05-22T14:22:18.452Z,14.98
2023-05-22T14:24:45.134Z,16.02
2023-05-22T14:27:12.002Z,14.98
2023-05-22T14:29:38.886Z,14.38
2023-05-22T14:32:05.876Z,16.88
2023-05-22T14:34:32.782Z,14.20
2023-05-22T14:36:59.538Z,12.90
2023-05-22T14:39:26.236Z,15.05
2023-05-22T14:41:53.821Z,16.35
2023-05-22T14:44:22.486Z,16.98
2023-05-22T14:46:51.035Z,14.07
2023-05-22T14:49:17.837Z,12.75
2023-05-22T14:51:48.356Z,14.32
2023-05-22T14:54:19.266Z,16.60
2023-05-22T14:56:46.356Z,15.75
2023-05-22T14:59:13.100Z,14.20
2023-05-22T15:01:40.021Z,16.80
2023-05-22T15:04:08.663Z,11.93
2023-05-22T15:06:35.455Z,16.52
2023-05-22T15:09:02.078Z,18.48
2023-05-22T15:11:28.817Z,16.75
2023-05-22T15:13:55.522Z,15.73
2023-05-22T15:16:22.601Z,14.63
2023-05-22T15:18:49.340Z,14.68
2023-05-22T15:21:16.838Z,16.77
2023-05-22T15:23:43.449Z,17.03
2023-05-22T15:26:10.202Z,15.32
2023-05-22T15:28:36.828Z,13.15
2023-05-22T15:31:03.445Z,15.38
2023-05-22T15:33:30.285Z,17.52
2023-05-22T15:35:56.907Z,17.25
2023-05-22T15:38:23.482Z,10.73
2023-05-22T15:40:50.095Z,8.60
2023-05-22T15:43:16.983Z,8.82
2023-05-22T15:45:47.014Z,9.48
2023-05-22T15:48:13.810Z,9.27
2023-05-22T15:50:40.728Z,8.75
2023-05-22T15:53:07.331Z,7.97
2023-05-22T15:55:34.063Z,8.00
2023-05-22T15:58:01.474Z,8.70
2023-05-22T16:00:28.317Z,10.43
2023-05-22T16:02:55.058Z,9.00
2023-05-22T16:05:22.096Z,8.10
2023-05-22T16:07:48.723Z,9.30
2023-05-22T16:10:15.563Z,6.97
2023-05-22T16:12:42.139Z,10.43
2023-05-22T16:15:09.477Z,7.90
2023-05-22T16:17:36.239Z,7.47
2023-05-22T16:20:04.740Z,7.95
2023-05-22T16:22:44.157Z,10.43
2023-05-22T16:25:18.118Z,9.00
2023-05-22T16:27:44.731Z,9.05
2023-05-22T16:30:12.278Z,8.32
2023-05-22T16:32:39.232Z,9.38
2023-05-22T16:35:06.262Z,7.22
2023-05-22T16:37:33.586Z,6.72
2023-05-22T16:40:00.407Z,7.47
2023-05-22T16:42:27.266Z,7.28
2023-05-22T16:44:53.980Z,7.07
2023-05-22T16:47:21.763Z,7.53
2023-05-22T16:49:48.397Z,7.15
2023-05-22T16:52:16.372Z,8.55
2023-05-22T16:54:42.975Z,7.78
2023-05-22T16:57:09.557Z,10.10
2023-05-22T16:59:36.170Z,9.88
2023-05-22T17:02:02.864Z,9.00
2023-05-22T17:04:29.488Z,8.80
2023-05-22T17:06:56.318Z,10.38
2023-05-22T17:09:22.916Z,11.13
2023-05-22T17:11:49.647Z,9.43
2023-05-22T17:14:16.444Z,6.57
2023-05-22T17:16:43.120Z,7.78
2023-05-22T17:19:09.951Z,9.40
2023-05-22T17:21:37.975Z,9.43
2023-05-22T17:24:04.966Z,9.05
2023-05-22T17:26:33.540Z,10.15
2023-05-22T17:29:00.273Z,10.63
2023-05-22T17:31:27.189Z,11.80
2023-05-22T17:33:53.941Z,14.52
2023-05-22T17:36:20.719Z,16.08
2023-05-22T17:38:47.957Z,10.15
2023-05-22T17:41:14.577Z,13.85
2023-05-22T17:43:41.187Z,14.98
2023-05-22T17:46:07.867Z,12.00
2023-05-22T17:48:34.574Z,12.05
2023-05-22T17:51:01.307Z,11.63
2023-05-22T17:53:32.104Z,16.13
2023-05-22T17:55:58.718Z,20.58
2023-05-22T17:58:25.644Z,12.90
2023-05-22T18:00:52.359Z,14.07
2023-05-22T18:03:22.350Z,18.17
2023-05-22T18:05:49.959Z,17.58
2023-05-22T18:08:17.680Z,18.77
2023-05-22T18:10:44.564Z,19.23
2023-05-22T18:13:11.386Z,22.10
2023-05-22T18:15:38.217Z,19.95
2023-05-22T18:18:05.022Z,23.92
2023-05-22T18:20:33.106Z,12.88
2023-05-22T18:23:00.293Z,11.50
2023-05-22T18:25:26.975Z,11.13
2023-05-22T18:27:53.646Z,13.05
2023-05-22T18:30:20.654Z,11.48
2023-05-22T18:32:47.416Z,10.35
2023-05-22T18:35:14.095Z,11.18
2023-05-22T18:37:41.083Z,8.40
2023-05-22T18:40:09.457Z,7.93
2023-05-22T18:45:02.759Z,4.97
2023-05-22T18:47:29.582Z,7.13
2023-05-22T18:49:56.261Z,6.05
2023-05-22T18:52:22.885Z,5.85
2023-05-22T18:54:49.525Z,8.40
2023-05-22T18:57:16.259Z,8.07
2023-05-22T18:59:43.528Z,6.22
2023-05-22T19:02:10.184Z,6.78
2023-05-22T19:04:36.861Z,7.90
2023-05-22T19:07:03.654Z,7.75
2023-05-22T19:09:30.340Z,7.90
2023-05-22T19:11:56.968Z,7.03
2023-05-22T19:14:23.560Z,11.43
2023-05-22T19:16:50.194Z,10.00
2023-05-22T19:19:16.900Z,10.95
2023-05-22T19:21:43.562Z,11.70
2023-05-22T19:24:10.187Z,12.05
2023-05-22T19:26:36.819Z,13.85
2023-05-22T19:29:03.542Z,11.07
2023-05-22T19:31:30.219Z,12.88
2023-05-22T19:33:57.002Z,16.20
2023-05-22T19:36:23.675Z,18.67
2023-05-22T19:38:51.282Z,17.73
2023-05-22T19:41:19.986Z,16.75
2023-05-22T19:43:46.628Z,16.45
2023-05-22T19:46:13.449Z,17.10
2023-05-22T19:48:40.125Z,20.33
2023-05-22T19:51:08.729Z,18.75
2023-05-22T19:53:35.362Z,20.60
2023-05-22T19:56:02.667Z,17.85
2023-05-22T19:58:29.328Z,20.58
2023-05-22T20:00:55.989Z,21.52
2023-05-22T20:03:23.458Z,20.77
2023-05-22T20:05:52.924Z,20.90
2023-05-22T20:08:21.690Z,20.35
2023-05-22T20:10:48.756Z,23.45
2023-05-22T20:13:15.517Z,32.22
2023-05-22T20:15:42.324Z,32.50
2023-05-22T20:18:11.010Z,40.22
2023-05-22T20:20:37.993Z,50.78
2023-05-22T20:23:04.660Z,55.42
2023-05-22T20:25:31.341Z,59.08
2023-05-22T20:27:58.028Z,67.30
2023-05-22T20:30:24.650Z,68.82
2023-05-22T20:32:52.038Z,81.60
2023-05-22T20:35:20.187Z,83.13
2023-05-22T20:37:47.543Z,79.25
2023-05-22T20:40:15.103Z,80.55
2023-05-22T20:42:42.829Z,80.47
2023-05-22T20:45:14.561Z,74.53
2023-05-22T20:47:42.001Z,72.03
2023-05-22T20:50:09.163Z,78.18
2023-05-22T20:52:37.319Z,78.90
2023-05-22T20:55:04.486Z,78.63
2023-05-22T20:57:31.147Z,70.90
2023-05-22T20:59:58.464Z,72.85
2023-05-22T21:02:26.063Z,72.03
2023-05-22T21:04:53.100Z,76.13
2023-05-22T21:07:19.828Z,67.38
2023-05-22T21:09:46.502Z,59.05
2023-05-22T21:12:13.211Z,63.28
2023-05-22T21:14:40.339Z,60.42
2023-05-22T21:17:07.328Z,61.22
2023-05-22T21:19:34.135Z,54.53
2023-05-22T21:22:00.798Z,67.35
2023-05-22T21:24:27.459Z,67.15
2023-05-22T21:26:54.070Z,57.95
2023-05-22T21:29:20.776Z,66.93
2023-05-22T21:31:47.431Z,62.78
2023-05-22T21:34:14.690Z,60.70
2023-05-22T21:36:41.355Z,52.10
2023-05-22T21:39:07.991Z,61.65
2023-05-22T21:41:34.809Z,44.65
2023-05-22T21:44:01.579Z,43.97
2023-05-22T21:46:28.242Z,45.00
2023-05-22T21:48:54.899Z,42.08
2023-05-22T21:51:21.535Z,38.28
2023-05-22T21:53:48.121Z,40.20
2023-05-22T21:56:14.753Z,35.58
2023-05-22T21:58:41.387Z,38.80
2023-05-22T22:01:08.055Z,38.50
2023-05-22T22:03:34.923Z,36.85
2023-05-22T22:06:01.729Z,40.90
2023-05-22T22:08:29.433Z,57.60
2023-05-22T22:10:56.254Z,38.97
2023-05-22T22:13:22.885Z,42.50
2023-05-22T22:15:49.618Z,39.78
2023-05-22T22:18:16.308Z,41.83
2023-05-22T22:20:45.308Z,38.72
2023-05-22T22:23:12.679Z,43.85
2023-05-22T22:25:39.635Z,41.03
2023-05-22T22:28:07.424Z,42.83
2023-05-22T22:30:35.262Z,40.97
2023-05-22T22:33:02.388Z,41.42
2023-05-22T22:35:29.143Z,41.28
2023-05-22T22:37:55.801Z,37.72
2023-05-22T22:40:23.374Z,36.40
2023-05-22T22:42:51.641Z,38.95
2023-05-22T22:45:18.288Z,36.55
2023-05-22T22:47:45.962Z,40.17
2023-05-22T22:50:12.695Z,40.40
2023-05-22T22:52:41.689Z,37.47
2023-05-22T22:55:09.086Z,41.90
2023-05-22T22:57:36.061Z,36.75
2023-05-22T23:00:02.732Z,38.53
2023-05-22T23:02:29.397Z,34.92
2023-05-22T23:04:56.315Z,35.05
2023-05-22T23:07:24.130Z,35.55
2023-05-22T23:09:50.740Z,28.75
2023-05-22T23:12:17.359Z,30.33
2023-05-22T23:14:44.913Z,27.40
2023-05-22T23:17:11.558Z,37.23
2023-05-22T23:19:38.169Z,35.35
2023-05-22T23:22:04.885Z,31.98
2023-05-22T23:24:31.556Z,33.53
2023-05-22T23:26:58.158Z,34.00
2023-05-22T23:29:24.913Z,25.35
2023-05-22T23:31:51.674Z,26.35
2023-05-22T23:34:19.075Z,22.63
2023-05-22T23:36:45.685Z,23.48
2023-05-22T23:39:12.357Z,26.35
2023-05-22T23:41:38.947Z,24.45
2023-05-22T23:44:06.250Z,28.90
2023-05-22T23:46:32.884Z,22.88
2023-05-22T23:48:59.517Z,22.17
2023-05-22T23:51:26.120Z,22.73
2023-05-22T23:53:52.867Z,26.40
2023-05-22T23:56:19.486Z,21.20
2023-05-22T23:58:46.094Z,23.35
